Time;durP1;ratioP1;P1;durP2;ratioP2;P2;SDS_P1;SDS_P2;PMS_P1;PMS_P2;Temp;Humidity;BMP_temperature;BMP_pressure;BME280_temperature;BME280_humidity;BME280_pressure;Samples;Min_cycle;Max_cycle;Signal;HPM_P1;HPM_P2
2021/11/16 00:02:06;;;;;;;11.55;8.50;;;;;;;9.38;100.00;98971.34;5089111;27;20115;-58
2021/11/16 00:04:31;;;;;;;11.45;8.20;;;;;;;9.46;100.00;98971.53;5060290;28;20961;-58
2021/11/16 00:06:57;;;;;;;11.23;7.72;;;;;;;9.39;100.00;98973.81;5063655;28;20029;-59
2021/11/16 00:09:23;;;;;;;11.13;8.27;;;;;;;9.39;100.00;98979.00;5091644;27;20036;-58
2021/11/16 00:11:49;;;;;;;11.25;7.53;;;;;;;9.37;100.00;98973.13;5013583;28;20032;-59
2021/11/16 00:14:16;;;;;;;13.02;7.63;;;;;;;9.38;100.00;98976.53;5065350;28;20024;-58
2021/11/16 00:16:42;;;;;;;13.68;7.80;;;;;;;9.34;100.00;98975.97;5062358;28;20505;-59
2021/11/16 00:19:11;;;;;;;11.60;8.02;;;;;;;9.36;100.00;98978.44;5066894;28;20143;-58
2021/11/16 00:21:36;;;;;;;11.73;7.72;;;;;;;9.35;100.00;98976.81;5063794;28;20040;-59
2021/11/16 00:24:09;;;;;;;11.85;7.68;;;;;;;9.22;100.00;98975.22;5072491;28;20032;-58
2021/11/16 00:26:35;;;;;;;10.70;7.63;;;;;;;9.13;100.00;98975.19;5043752;28;20029;-59
2021/11/16 00:29:01;;;;;;;11.57;7.55;;;;;;;9.10;100.00;98978.81;5073236;28;20390;-58
2021/11/16 00:31:26;;;;;;;11.35;7.63;;;;;;;9.11;100.00;98984.81;5084725;28;20029;-59
2021/11/16 00:33:53;;;;;;;11.95;7.90;;;;;;;8.92;100.00;98944.84;5069959;28;20031;-59
2021/11/16 00:36:19;;;;;;;12.93;8.38;;;;;;;9.12;100.00;98982.13;5067547;28;20682;-59
2021/11/16 00:38:44;;;;;;;12.73;8.48;;;;;;;9.13;100.00;98988.16;5076102;28;20027;-59
2021/11/16 00:41:10;;;;;;;11.43;7.30;;;;;;;9.06;100.00;98974.84;5076791;28;20020;-59
2021/11/16 00:43:35;;;;;;;11.07;7.35;;;;;;;9.00;100.00;98960.63;5050384;28;20035;-58
2021/11/16 00:46:01;;;;;;;13.88;7.82;;;;;;;9.17;100.00;98969.59;5064614;28;20035;-59
2021/11/16 00:48:27;;;;;;;11.35;7.20;;;;;;;9.14;100.00;98974.22;5072654;28;20067;-59
2021/11/16 00:50:56;;;;;;;10.95;8.40;;;;;;;9.12;100.00;98963.13;5071908;28;20050;-58
2021/11/16 00:53:24;;;;;;;11.43;7.90;;;;;;;9.12;100.00;98965.72;5079885;28;20141;-59
2021/11/16 00:55:50;;;;;;;12.60;9.63;;;;;;;9.17;100.00;98968.78;5068181;28;20281;-59
2021/11/16 00:58:17;;;;;;;12.35;9.45;;;;;;;9.24;100.00;98980.28;5049939;28;21130;-58
2021/11/16 01:00:43;;;;;;;13.38;9.82;;;;;;;9.22;100.00;98971.81;5074199;28;20085;-59
2021/11/16 01:03:13;;;;;;;14.05;9.57;;;;;;;9.16;100.00;98973.16;5079254;28;20028;-58
2021/11/16 01:05:39;;;;;;;14.07;10.68;;;;;;;9.05;100.00;98965.41;5069432;28;20035;-59
2021/11/16 01:08:05;;;;;;;14.23;9.88;;;;;;;8.99;100.00;98958.13;5068820;28;20103;-58
2021/11/16 01:10:31;;;;;;;14.70;8.95;;;;;;;8.88;100.00;98968.56;5055911;28;20687;-59
2021/11/16 01:12:56;;;;;;;12.88;9.32;;;;;;;8.84;100.00;98973.19;5064316;28;20032;-59
2021/11/16 01:15:22;;;;;;;13.65;9.85;;;;;;;8.87;100.00;98957.38;5061346;28;20035;-58
2021/11/16 01:17:49;;;;;;;13.35;8.95;;;;;;;8.65;100.00;98922.84;5057297;28;20213;-59
2021/11/16 01:20:16;;;;;;;13.27;9.30;;;;;;;8.58;100.00;98913.91;5068617;28;20016;-59
2021/11/16 01:22:43;;;;;;;11.30;8.48;;;;;;;8.83;100.00;98948.19;5070392;28;20446;-58
2021/11/16 01:25:10;;;;;;;13.65;8.45;;;;;;;8.87;100.00;98951.34;5076017;28;20046;-58
2021/11/16 01:27:36;;;;;;;12.30;8.13;;;;;;;8.91;100.00;98955.34;5080762;28;20171;-58
2021/11/16 01:30:06;;;;;;;13.85;9.95;;;;;;;8.89;100.00;98950.31;5008763;28;22241;-58
2021/11/16 01:32:39;;;;;;;13.93;9.60;;;;;;;8.63;100.00;98905.75;5073284;28;20103;-59
2021/11/16 01:35:06;;;;;;;15.70;11.07;;;;;;;8.95;100.00;98951.56;5077394;28;20032;-58
2021/11/16 01:37:32;;;;;;;15.93;11.15;;;;;;;9.02;100.00;98950.13;5064753;28;20089;-58
2021/11/16 01:39:57;;;;;;;13.98;9.68;;;;;;;9.00;100.00;98929.47;5075859;28;20032;-58
2021/11/16 01:42:23;;;;;;;15.57;10.60;;;;;;;9.06;100.00;98940.31;5075142;28;20044;-59
2021/11/16 01:44:49;;;;;;;12.23;9.07;;;;;;;9.04;100.00;98936.06;5067463;28;20039;-59
2021/11/16 01:47:16;;;;;;;12.90;9.15;;;;;;;8.94;100.00;98911.00;5058797;28;20612;-58
2021/11/16 01:49:41;;;;;;;12.25;9.10;;;;;;;8.94;100.00;98908.41;5078001;28;20160;-58
2021/11/16 01:52:08;;;;;;;13.10;9.68;;;;;;;9.12;100.00;98932.00;5077758;28;20103;-58
2021/11/16 01:54:34;;;;;;;12.48;9.35;;;;;;;9.14;100.00;98932.69;5071522;28;20052;-59
2021/11/16 01:57:00;;;;;;;14.48;10.40;;;;;;;9.11;100.00;98925.16;5072003;28;20036;-58
2021/11/16 01:59:26;;;;;;;14.70;10.48;;;;;;;9.01;100.00;98915.56;5075601;28;20028;-59
2021/11/16 02:01:52;;;;;;;13.48;9.55;;;;;;;9.05;100.00;98910.94;5070474;28;20050;-57
2021/11/16 02:04:17;;;;;;;13.48;10.00;;;;;;;9.07;100.00;98916.81;5076570;28;20427;-57
2021/11/16 02:06:44;;;;;;;15.52;10.93;;;;;;;9.05;100.00;98921.31;5076733;28;20612;-58
2021/11/16 02:09:12;;;;;;;17.20;11.95;;;;;;;8.81;100.00;98867.13;5070070;28;20043;-58
2021/11/16 02:11:39;;;;;;;16.92;11.82;;;;;;;8.74;100.00;98863.38;5079778;28;20039;-57
2021/11/16 02:14:06;;;;;;;17.70;12.00;;;;;;;9.08;100.00;98905.50;5061891;28;20024;-59
2021/11/16 02:16:33;;;;;;;17.52;11.68;;;;;;;9.07;100.00;98903.03;5065977;28;20031;-58
2021/11/16 02:19:06;;;;;;;16.20;11.90;;;;;;;9.04;100.00;98906.72;5064503;28;20024;-57
2021/11/16 02:21:32;;;;;;;16.23;11.90;;;;;;;9.08;100.00;98896.91;5071251;28;20072;-59
2021/11/16 02:23:58;;;;;;;17.77;12.73;;;;;;;9.06;100.00;98902.22;5073375;28;20693;-58
2021/11/16 02:26:23;;;;;;;15.45;11.02;;;;;;;8.81;100.00;98859.34;5079039;28;20035;-58
2021/11/16 02:28:50;;;;;;;15.82;11.95;;;;;;;9.06;100.00;98910.00;5058589;28;20028;-58
2021/11/16 02:31:16;;;;;;;16.13;11.73;;;;;;;9.11;100.00;98914.78;5065940;28;20506;-58
2021/11/16 02:33:42;;;;;;;16.35;10.48;;;;;;;9.08;100.00;98917.66;5068075;28;20153;-58
2021/11/16 02:36:08;;;;;;;14.65;10.00;;;;;;;8.83;100.00;98867.81;5071536;28;21058;-59
2021/11/16 02:38:35;;;;;;;12.90;8.88;;;;;;;8.85;100.00;98876.28;5058431;28;20024;-57
2021/11/16 02:41:02;;;;;;;13.27;10.27;;;;;;;9.05;100.00;98908.34;5072889;28;20071;-58
2021/11/16 02:43:28;;;;;;;15.65;11.45;;;;;;;8.93;100.00;98904.19;5107485;27;20024;-57
2021/11/16 02:45:54;;;;;;;15.30;11.27;;;;;;;8.94;100.00;98906.63;5055641;28;20029;-57
2021/11/16 02:48:20;;;;;;;14.70;10.20;;;;;;;8.79;100.00;98863.84;5069205;28;20031;-56
2021/11/16 02:50:48;;;;;;;15.07;10.27;;;;;;;9.15;100.00;98911.00;5074871;28;20024;-56
2021/11/16 02:53:14;;;;;;;14.57;10.00;;;;;;;8.65;100.00;98826.91;5074739;28;20497;-58
2021/11/16 02:55:41;;;;;;;15.35;10.63;;;;;;;9.13;100.00;98907.72;5065372;28;20029;-56
2021/11/16 02:58:07;;;;;;;14.80;11.00;;;;;;;9.07;100.00;98877.09;5071578;28;20032;-60
2021/11/16 03:00:34;;;;;;;14.50;10.60;;;;;;;9.28;100.00;98910.81;5080650;28;20128;-58
2021/11/16 03:03:00;;;;;;;17.75;11.10;;;;;;;9.10;100.00;98892.41;5071168;28;20413;-59
2021/11/16 03:05:35;;;;;;;16.30;11.32;;;;;;;9.10;100.00;98906.19;5078029;28;20063;-58
2021/11/16 03:08:01;;;;;;;16.85;11.32;;;;;;;9.10;100.00;98913.97;5072747;28;20056;-59
2021/11/16 03:10:29;;;;;;;18.08;12.18;;;;;;;8.92;100.00;98874.81;5065889;28;20036;-59
2021/11/16 03:12:56;;;;;;;17.13;12.02;;;;;;;9.16;100.00;98910.03;5071237;28;20027;-59
2021/11/16 03:15:22;;;;;;;16.85;11.60;;;;;;;9.11;100.00;98910.44;5067430;28;20036;-58
2021/11/16 03:17:48;;;;;;;19.33;11.90;;;;;;;9.04;100.00;98911.91;5068528;28;20078;-58
2021/11/16 03:20:15;;;;;;;19.02;12.20;;;;;;;9.13;100.00;98920.69;5075959;28;20031;-58
2021/11/16 03:22:52;;;;;;;17.58;12.05;;;;;;;9.13;100.00;98918.91;5067882;28;20028;-59
2021/11/16 03:25:19;;;;;;;17.73;12.10;;;;;;;9.09;100.00;98917.53;5076600;28;20139;-59
2021/11/16 03:27:51;;;;;;;17.85;11.75;;;;;;;9.09;100.00;98917.53;5065516;28;20139;-59
2021/11/16 03:30:17;;;;;;;19.73;11.98;;;;;;;9.12;100.00;98919.84;5075977;28;20032;-59
2021/11/16 03:32:44;;;;;;;16.50;11.90;;;;;;;9.17;100.00;98911.69;5069135;28;20043;-58
2021/11/16 03:35:10;;;;;;;19.60;12.98;;;;;;;9.06;100.00;98897.03;5077637;28;20047;-58
2021/11/16 03:37:43;;;;;;;18.30;12.75;;;;;;;9.09;100.00;98906.31;5076216;28;20432;-58
2021/11/16 03:40:10;;;;;;;20.90;13.10;;;;;;;8.63;100.00;98825.38;5074632;28;20520;-58
2021/11/16 03:42:41;;;;;;;19.45;12.32;;;;;;;9.15;100.00;98908.41;5076205;28;20020;-59
2021/11/16 03:45:08;;;;;;;19.65;12.25;;;;;;;9.11;100.00;98910.44;5073919;28;20054;-59
2021/11/16 03:47:34;;;;;;;18.45;12.45;;;;;;;9.10;100.00;98910.56;5067422;28;20039;-59
2021/11/16 03:49:59;;;;;;;19.63;12.35;;;;;;;9.08;100.00;98902.09;5063601;28;20029;-58
2021/11/16 03:52:26;;;;;;;18.60;12.98;;;;;;;9.02;100.00;98898.25;5075783;28;20028;-59
2021/11/16 03:54:52;;;;;;;16.75;11.23;;;;;;;9.02;100.00;98891.28;5075287;28;20032;-59
2021/11/16 03:57:20;;;;;;;20.77;12.93;;;;;;;8.90;100.00;98868.13;5069893;28;20025;-58
2021/11/16 03:59:45;;;;;;;20.55;12.80;;;;;;;8.89;100.00;98884.63;5069065;28;20081;-59
2021/11/16 04:02:11;;;;;;;19.00;11.80;;;;;;;8.99;100.00;98894.13;5068114;28;20468;-59
2021/11/16 04:04:37;;;;;;;18.45;11.90;;;;;;;9.02;100.00;98891.28;5080483;28;20028;-59
2021/11/16 04:07:02;;;;;;;18.77;11.82;;;;;;;9.03;100.00;98886.91;5061460;28;20024;-58
2021/11/16 04:09:28;;;;;;;15.77;11.02;;;;;;;9.01;100.00;98894.81;5072308;28;20528;-59
2021/11/16 04:11:54;;;;;;;15.68;10.63;;;;;;;9.10;100.00;98884.63;5074213;28;20578;-58
2021/11/16 04:14:19;;;;;;;14.65;10.43;;;;;;;9.16;100.00;98884.09;5066211;28;20025;-59
2021/11/16 04:16:45;;;;;;;16.75;11.32;;;;;;;9.17;100.00;98885.75;5075093;28;20028;-58
2021/11/16 04:19:10;;;;;;;15.70;10.48;;;;;;;9.15;100.00;98888.47;5079857;28;20024;-59
2021/11/16 04:21:36;;;;;;;17.42;11.95;;;;;;;9.08;100.00;98876.97;5080904;28;20040;-59
2021/11/16 04:24:02;;;;;;;16.90;11.10;;;;;;;9.06;100.00;98865.09;5072405;28;20043;-58
2021/11/16 04:26:28;;;;;;;15.27;10.75;;;;;;;9.16;100.00;98881.50;5081246;28;20035;-59
2021/11/16 04:28:53;;;;;;;15.90;11.30;;;;;;;9.19;100.00;98874.28;5060523;28;20020;-58
2021/11/16 04:31:20;;;;;;;18.00;12.20;;;;;;;9.24;100.00;98872.13;5080455;28;20119;-58
2021/11/16 04:33:45;;;;;;;17.73;11.23;;;;;;;8.65;100.00;98785.44;5077523;28;20059;-59
2021/11/16 04:36:13;;;;;;;16.77;12.07;;;;;;;9.09;100.00;98857.88;5079008;28;20111;-58
2021/11/16 04:38:39;;;;;;;16.52;11.18;;;;;;;8.87;100.00;98817.34;5077242;28;20039;-58
2021/11/16 04:41:04;;;;;;;17.88;12.02;;;;;;;8.94;100.00;98841.78;5070411;28;20024;-59
2021/11/16 04:43:31;;;;;;;15.20;10.68;;;;;;;9.19;100.00;98876.06;5076861;28;20060;-58
2021/11/16 04:46:02;;;;;;;16.73;10.95;;;;;;;8.91;100.00;98847.25;5078212;28;20362;-58
2021/11/16 05:04:54;;;;;;;15.38;10.32;;;;;;;8.75;100.00;98857.25;5019608;28;20037;-58
2021/11/16 05:07:21;;;;;;;16.65;11.20;;;;;;;8.70;100.00;98844.66;5063003;28;20090;-58
2021/11/16 05:09:52;;;;;;;14.13;10.65;;;;;;;8.56;100.00;98822.50;5069511;28;20049;-57
2021/11/16 05:12:18;;;;;;;15.07;10.35;;;;;;;8.84;100.00;98878.06;5081822;28;20036;-57
2021/11/16 05:14:43;;;;;;;15.40;10.18;;;;;;;8.84;100.00;98874.66;5067950;28;20086;-60
2021/11/16 05:17:08;;;;;;;15.07;10.20;;;;;;;8.89;100.00;98861.28;5072403;28;20027;-58
2021/11/16 05:19:34;;;;;;;14.10;9.95;;;;;;;8.82;100.00;98866.19;5072437;28;20115;-59
2021/11/16 05:21:59;;;;;;;15.15;10.07;;;;;;;8.49;100.00;98817.91;5064398;28;20036;-57
2021/11/16 05:24:25;;;;;;;16.08;10.07;;;;;;;8.76;100.00;98861.47;5079479;28;20026;-58
2021/11/16 05:26:52;;;;;;;15.65;10.48;;;;;;;8.75;100.00;98854.66;5077162;28;20860;-57
2021/11/16 05:29:17;;;;;;;15.32;10.00;;;;;;;8.79;100.00;98859.47;5076002;28;20035;-58
2021/11/16 05:31:43;;;;;;;15.43;9.90;;;;;;;8.66;100.00;98848.47;5067918;28;20040;-56
2021/11/16 05:34:08;;;;;;;17.27;10.35;;;;;;;8.63;100.00;98851.31;5071391;28;20047;-56
2021/11/16 05:36:34;;;;;;;14.80;9.57;;;;;;;8.68;100.00;98851.75;5072496;28;20085;-58
2021/11/16 05:38:59;;;;;;;14.48;9.82;;;;;;;8.65;100.00;98852.84;5076298;28;20543;-58
2021/11/16 05:41:24;;;;;;;15.57;9.90;;;;;;;8.64;100.00;98864.16;5076491;28;20037;-57
2021/11/16 05:43:50;;;;;;;15.43;9.77;;;;;;;8.72;100.00;98860.09;5074843;28;20578;-58
2021/11/16 05:46:23;;;;;;;14.50;10.07;;;;;;;8.68;100.00;98848.34;5076488;28;20043;-58
2021/11/16 05:48:51;;;;;;;14.52;9.73;;;;;;;8.66;100.00;98846.69;5074828;28;20059;-60
2021/11/16 05:51:17;;;;;;;15.88;10.13;;;;;;;8.43;100.00;98809.72;5066645;28;20020;-58
2021/11/16 05:53:45;;;;;;;18.45;9.80;;;;;;;8.40;100.00;98809.94;5067407;28;20984;-57
2021/11/16 05:56:11;;;;;;;14.07;9.30;;;;;;;8.69;100.00;98865.53;5068495;28;20028;-57
2021/11/16 05:58:41;;;;;;;14.15;9.75;;;;;;;8.44;100.00;98820.91;5061356;28;20036;-59
2021/11/16 06:01:07;;;;;;;13.73;9.48;;;;;;;8.61;100.00;98854.00;5075033;28;20051;-59
2021/11/16 06:03:32;;;;;;;17.33;9.90;;;;;;;8.60;100.00;98854.97;5066016;28;20574;-57
2021/11/16 06:05:57;;;;;;;14.35;9.13;;;;;;;8.69;100.00;98860.34;5065953;28;20036;-58
2021/11/16 06:08:26;;;;;;;14.55;9.75;;;;;;;8.65;100.00;98870.13;5074730;28;20119;-58
2021/11/16 06:10:52;;;;;;;14.80;9.85;;;;;;;8.65;100.00;98865.81;5068334;28;20024;-58
2021/11/16 06:13:18;;;;;;;16.17;9.68;;;;;;;8.71;100.00;98869.66;5073432;28;20020;-57
2021/11/16 06:15:43;;;;;;;14.40;9.35;;;;;;;8.65;100.00;98875.31;5069643;28;20387;-59
2021/11/16 06:18:09;;;;;;;16.50;10.05;;;;;;;8.68;100.00;98875.09;5072861;28;20028;-60
2021/11/16 06:20:35;;;;;;;14.32;8.95;;;;;;;8.73;100.00;98878.13;5065574;28;20024;-59
2021/11/16 06:23:00;;;;;;;13.23;9.40;;;;;;;8.77;100.00;98876.09;5065493;28;20035;-58
2021/11/16 06:25:25;;;;;;;16.55;10.25;;;;;;;8.62;100.00;98881.59;5075200;28;20072;-60
2021/11/16 06:27:51;;;;;;;14.10;9.45;;;;;;;8.61;100.00;98873.94;5064974;28;20053;-56
2021/11/16 06:30:16;;;;;;;15.73;10.15;;;;;;;8.64;100.00;98877.09;5061914;28;20130;-58
2021/11/16 06:32:43;;;;;;;16.88;10.27;;;;;;;8.46;100.00;98842.31;5065307;28;20032;-61
2021/11/16 06:35:15;;;;;;;14.63;9.40;;;;;;;8.65;100.00;98889.13;5082778;28;20020;-58
2021/11/16 06:37:41;;;;;;;16.35;10.07;;;;;;;8.61;100.00;98889.50;5075239;28;20027;-58
2021/11/16 06:40:07;;;;;;;15.27;9.82;;;;;;;8.68;100.00;98890.63;5072843;28;20028;-57
2021/11/16 06:42:32;;;;;;;19.17;9.85;;;;;;;8.50;100.00;98880.00;5067697;28;20035;-61
2021/11/16 06:44:58;;;;;;;15.00;9.90;;;;;;;8.59;100.00;98889.63;5070104;28;20037;-60
2021/11/16 06:47:24;;;;;;;15.30;9.50;;;;;;;8.64;100.00;98884.88;5070657;28;20596;-58
2021/11/16 06:49:50;;;;;;;14.90;10.13;;;;;;;8.69;100.00;98904.41;5075569;28;20040;-59
2021/11/16 06:52:17;;;;;;;15.60;9.77;;;;;;;8.66;100.00;98900.31;5077932;28;20624;-58
2021/11/16 06:54:42;;;;;;;13.95;9.98;;;;;;;8.63;100.00;98904.00;5079619;28;20031;-61
2021/11/16 06:57:08;;;;;;;17.20;11.68;;;;;;;8.68;100.00;98902.78;5074711;28;20023;-57
2021/11/16 06:59:33;;;;;;;13.55;9.30;;;;;;;8.49;100.00;98857.63;5078606;28;20071;-57
2021/11/16 07:01:59;;;;;;;14.32;9.27;;;;;;;8.64;100.00;98881.47;5075808;28;20368;-58
2021/11/16 07:04:34;;;;;;;14.50;9.95;;;;;;;8.48;100.00;98862.94;5075879;28;20102;-57
2021/11/16 07:07:00;;;;;;;14.50;9.32;;;;;;;8.79;100.00;98913.09;5085545;27;20454;-59
2021/11/16 07:09:32;;;;;;;16.90;9.18;;;;;;;8.80;100.00;98914.75;5074821;28;20482;-57
2021/11/16 07:11:58;;;;;;;15.75;9.88;;;;;;;8.78;100.00;98919.22;5078486;28;20020;-61
2021/11/16 07:14:26;;;;;;;13.30;9.30;;;;;;;8.81;100.00;98913.78;5065796;28;20120;-57
2021/11/16 07:16:54;;;;;;;14.63;8.57;;;;;;;8.85;100.00;98912.59;5076158;28;20375;-57
2021/11/16 07:19:43;;;;;;;13.18;8.63;;;;;;;8.43;100.00;98868.47;5069565;28;20418;-57
2021/11/16 07:22:20;;;;;;;16.27;10.00;;;;;;;8.57;100.00;98883.75;5071360;28;20592;-57
2021/11/16 07:24:56;;;;;;;13.93;9.15;;;;;;;8.80;100.00;98928.53;5085196;28;20024;-58
2021/11/16 07:27:42;;;;;;;14.80;9.90;;;;;;;8.88;100.00;98927.09;5072203;28;20408;-58
2021/11/16 07:30:13;;;;;;;14.70;9.38;;;;;;;8.87;100.00;98926.25;5075541;28;20727;-58
2021/11/16 07:32:45;;;;;;;14.98;9.40;;;;;;;8.84;99.72;98924.72;5080193;28;20328;-58
2021/11/16 07:35:15;;;;;;;14.15;9.48;;;;;;;8.49;100.00;98864.56;5077792;28;20048;-58
2021/11/16 07:37:42;;;;;;;13.25;8.93;;;;;;;8.78;100.00;98921.81;5075856;28;20029;-57
2021/11/16 07:40:16;;;;;;;17.55;9.88;;;;;;;8.84;100.00;98921.31;5072941;28;20051;-60
2021/11/16 07:42:56;;;;;;;15.25;9.65;;;;;;;8.97;100.00;98931.50;5073901;28;20495;-57
2021/11/16 07:45:24;;;;;;;18.65;13.20;;;;;;;8.93;100.00;98928.34;5075139;28;20024;-58
2021/11/16 07:47:51;;;;;;;14.65;9.77;;;;;;;8.83;100.00;98915.31;5078341;28;20021;-57
2021/11/16 07:50:20;;;;;;;15.45;9.10;;;;;;;8.95;100.00;98931.63;5076241;28;20055;-57
2021/11/16 07:52:47;;;;;;;14.30;9.48;;;;;;;8.48;99.98;98848.22;5079320;28;20024;-57
2021/11/16 07:55:25;;;;;;;14.60;9.38;;;;;;;9.04;99.64;98925.69;5066304;28;20327;-59
2021/11/16 07:57:52;;;;;;;22.27;10.35;;;;;;;8.94;99.73;98927.38;5075107;28;20086;-57
2021/11/16 08:00:22;;;;;;;14.63;8.93;;;;;;;8.87;100.00;98922.84;5067523;28;20025;-58
2021/11/16 08:02:53;;;;;;;16.05;11.23;;;;;;;8.78;100.00;98917.47;5064749;28;20033;-59
2021/11/16 08:08:19;;;;;;;14.37;9.57;;;;;;;8.81;100.00;98931.94;5066871;28;20049;-59
2021/11/16 08:10:50;;;;;;;17.02;12.73;;;;;;;8.44;100.00;98896.06;5077563;28;20051;-58
2021/11/16 08:13:26;;;;;;;16.27;10.32;;;;;;;8.77;100.00;98943.50;5072657;28;20108;-57
2021/11/16 08:15:52;;;;;;;16.33;10.73;;;;;;;8.79;100.00;98949.41;5070880;28;20111;-58
2021/11/16 08:18:18;;;;;;;16.52;10.30;;;;;;;8.83;99.71;98940.41;5067294;28;20099;-58
2021/11/16 08:20:43;;;;;;;17.80;12.32;;;;;;;8.76;99.52;98949.63;5075206;28;20052;-57
2021/11/16 08:23:09;;;;;;;17.83;12.02;;;;;;;8.78;99.85;98947.72;5080995;28;20469;-59
2021/11/16 08:25:39;;;;;;;12.98;8.95;;;;;;;8.87;99.82;98959.13;5076182;28;20017;-57
2021/11/16 08:28:09;;;;;;;17.48;10.32;;;;;;;8.95;99.50;98954.16;5063852;28;20020;-59
2021/11/16 08:30:35;;;;;;;14.02;8.40;;;;;;;8.87;98.77;98959.97;5080908;28;20020;-60
2021/11/16 08:33:02;;;;;;;14.02;8.57;;;;;;;8.67;98.69;98925.31;5074814;28;20431;-59
2021/11/16 08:35:28;;;;;;;13.73;9.07;;;;;;;8.81;98.20;98950.09;5070534;28;20112;-56
2021/11/16 08:37:57;;;;;;;16.73;12.00;;;;;;;8.61;98.52;98912.81;5080679;28;20484;-57
2021/11/16 08:40:25;;;;;;;17.42;11.25;;;;;;;8.92;98.97;98960.41;5066042;28;20121;-57
2021/11/16 08:42:58;;;;;;;15.02;9.68;;;;;;;8.78;98.43;98914.03;5071239;28;20033;-54
2021/11/16 08:45:28;;;;;;;14.05;9.90;;;;;;;9.12;98.02;98957.94;5062172;28;20048;-59
2021/11/16 08:47:56;;;;;;;12.65;8.45;;;;;;;9.13;96.48;98947.44;5065211;28;20032;-59
2021/11/16 08:50:32;;;;;;;14.23;9.63;;;;;;;9.15;96.59;98961.13;5075207;28;20020;-59
2021/11/16 08:53:13;;;;;;;13.60;9.30;;;;;;;9.21;96.27;98960.59;5067907;28;20518;-59
2021/11/16 08:55:40;;;;;;;14.07;9.25;;;;;;;9.21;96.97;98954.59;5080948;28;20024;-58
2021/11/16 08:58:11;;;;;;;15.35;8.95;;;;;;;8.87;96.85;98907.28;5067541;28;20054;-59
2021/11/16 09:00:50;;;;;;;13.13;9.40;;;;;;;8.97;96.84;98913.34;5070087;28;20067;-59
2021/11/16 09:03:19;;;;;;;13.57;8.88;;;;;;;9.16;95.59;98959.34;5075272;28;20025;-59
2021/11/16 09:05:46;;;;;;;16.80;10.05;;;;;;;9.18;96.08;98955.69;5076572;28;20062;-61
2021/11/16 09:08:21;;;;;;;14.57;9.80;;;;;;;9.19;95.31;98953.91;5079524;28;20526;-58
2021/11/16 09:10:49;;;;;;;13.38;8.52;;;;;;;9.35;94.85;98956.88;5077123;28;20035;-60
2021/11/16 09:13:17;;;;;;;12.27;8.77;;;;;;;9.36;95.29;98955.91;5075468;28;20036;-60
2021/11/16 09:15:45;;;;;;;13.00;9.20;;;;;;;9.38;94.44;98959.22;5074697;28;20042;-62
2021/11/16 09:18:14;;;;;;;12.13;8.23;;;;;;;9.48;94.90;98951.47;5077181;28;20743;-59
2021/11/16 09:20:40;;;;;;;13.60;8.73;;;;;;;9.53;93.51;98949.31;5077413;28;20035;-60
2021/11/16 09:23:07;;;;;;;12.85;8.90;;;;;;;9.48;93.14;98954.06;5079906;28;20032;-59
2021/11/16 09:25:36;;;;;;;12.90;8.80;;;;;;;9.50;93.44;98961.72;5061535;28;20625;-59
2021/11/16 09:28:10;;;;;;;12.07;8.18;;;;;;;9.43;94.02;98956.22;5064894;28;20021;-60
2021/11/16 09:30:42;;;;;;;11.98;8.70;;;;;;;9.27;93.60;98927.31;5070857;28;20031;-61
2021/11/16 09:33:19;;;;;;;12.80;9.10;;;;;;;9.38;95.25;98956.63;5064260;28;20020;-59
2021/11/16 09:35:50;;;;;;;12.75;8.40;;;;;;;9.32;95.14;98962.28;5080934;28;20032;-61
2021/11/16 09:38:40;;;;;;;11.95;8.35;;;;;;;9.47;94.87;98955.00;5067752;28;20020;-59
2021/11/16 09:41:06;;;;;;;13.15;8.93;;;;;;;9.42;94.21;98947.59;5065649;28;20028;-59
2021/11/16 09:43:31;;;;;;;11.90;8.15;;;;;;;9.50;93.54;98957.34;5081084;28;20548;-62
2021/11/16 09:46:03;;;;;;;12.73;8.43;;;;;;;9.53;94.05;98956.28;5065743;28;20104;-63
2021/11/16 09:48:31;;;;;;;14.68;8.50;;;;;;;9.57;94.08;98953.28;5063572;28;20035;-59
2021/11/16 09:50:56;;;;;;;12.27;8.38;;;;;;;9.65;93.64;98951.81;5062456;28;20055;-59
2021/11/16 09:53:22;;;;;;;13.98;8.65;;;;;;;9.67;92.41;98947.31;5058881;28;20036;-61
2021/11/16 09:55:47;;;;;;;12.68;8.57;;;;;;;9.59;93.32;98945.38;5074687;28;20888;-62
2021/11/16 09:58:24;;;;;;;13.05;8.75;;;;;;;9.52;93.95;98934.66;5071463;28;20674;-63
2021/11/16 10:00:51;;;;;;;12.70;8.77;;;;;;;9.61;93.99;98939.06;5079035;28;20395;-60
2021/11/16 10:03:20;;;;;;;12.32;8.70;;;;;;;9.69;94.28;98933.25;5065970;28;20032;-60
2021/11/16 10:05:55;;;;;;;12.95;9.02;;;;;;;9.72;94.26;98935.56;5081404;28;20486;-60
2021/11/16 10:08:24;;;;;;;13.45;9.13;;;;;;;9.47;94.03;98882.31;5071971;28;20029;-60
2021/11/16 10:10:53;;;;;;;11.98;8.40;;;;;;;9.69;93.94;98938.44;5065003;28;20032;-60
2021/11/16 10:13:24;;;;;;;13.18;8.52;;;;;;;9.46;94.68;98891.06;5073319;28;20028;-59
2021/11/16 10:15:52;;;;;;;12.98;8.63;;;;;;;9.77;94.14;98927.41;5076513;28;20030;-61
2021/11/16 10:18:20;;;;;;;12.32;8.65;;;;;;;9.86;94.85;98936.19;5067325;28;20027;-60
2021/11/16 10:20:47;;;;;;;12.45;8.55;;;;;;;9.89;94.34;98933.28;5069528;28;20020;-62
2021/11/16 10:23:34;;;;;;;12.90;8.70;;;;;;;9.78;93.46;98931.63;5065495;28;20584;-60
2021/11/16 10:26:01;;;;;;;14.30;8.85;;;;;;;9.80;94.19;98922.75;5074012;28;20067;-60
2021/11/16 10:28:27;;;;;;;12.65;8.50;;;;;;;9.80;93.84;98925.34;5071067;28;20556;-61
2021/11/16 10:30:58;;;;;;;13.32;8.93;;;;;;;9.78;93.28;98921.22;5067502;28;20036;-62
2021/11/16 10:33:26;;;;;;;14.10;9.25;;;;;;;9.78;93.12;98916.88;5070452;28;20039;-61
2021/11/16 10:35:55;;;;;;;12.75;8.85;;;;;;;9.89;92.73;98930.69;5071374;28;20021;-61
2021/11/16 10:38:23;;;;;;;12.52;8.93;;;;;;;9.91;93.41;98932.22;5063258;28;20621;-61
2021/11/16 10:40:49;;;;;;;13.07;8.60;;;;;;;9.92;92.03;98920.06;5065539;28;20025;-60
2021/11/16 10:43:15;;;;;;;12.02;8.85;;;;;;;9.92;93.87;98926.06;5075806;28;20034;-62
2021/11/16 10:45:46;;;;;;;15.90;9.25;;;;;;;10.03;93.99;98921.72;5075597;28;20474;-61
2021/11/16 10:48:14;;;;;;;13.38;9.20;;;;;;;10.03;92.54;98906.13;5065438;28;20818;-62
2021/11/16 10:50:42;;;;;;;13.13;9.07;;;;;;;10.02;92.63;98923.50;5074460;28;20049;-62
2021/11/16 10:53:11;;;;;;;12.68;9.00;;;;;;;9.82;92.36;98875.88;5052142;28;20032;-61
2021/11/16 10:55:54;;;;;;;12.38;8.70;;;;;;;9.93;92.60;98875.78;5066603;28;20032;-60
2021/11/16 10:58:36;;;;;;;11.93;8.43;;;;;;;10.17;91.98;98914.38;5078851;28;20541;-60
2021/11/16 11:01:10;;;;;;;13.52;9.20;;;;;;;10.27;92.41;98916.16;5074483;28;20921;-61
2021/11/16 11:03:42;;;;;;;13.18;8.32;;;;;;;10.26;91.97;98914.50;5062368;28;20027;-61
2021/11/16 11:06:14;;;;;;;12.65;8.90;;;;;;;10.36;92.39;98910.16;5062506;28;20371;-62
2021/11/16 11:08:54;;;;;;;14.07;8.95;;;;;;;10.39;91.87;98913.31;5073873;28;20038;-60
2021/11/16 11:11:21;;;;;;;12.65;8.95;;;;;;;10.38;91.88;98908.25;5087247;28;20024;-61
2021/11/16 11:14:07;;;;;;;12.80;8.85;;;;;;;10.40;91.89;98908.94;5066605;28;20028;-64
2021/11/16 11:16:41;;;;;;;14.43;9.35;;;;;;;9.81;92.13;98825.69;5072548;28;20037;-61
2021/11/16 11:19:09;;;;;;;12.98;8.57;;;;;;;10.36;91.33;98895.38;5061849;28;20040;-62
2021/11/16 11:21:40;;;;;;;11.68;8.30;;;;;;;10.09;91.36;98862.22;5068350;28;20088;-61
2021/11/16 11:24:19;;;;;;;13.18;8.73;;;;;;;10.29;92.83;98896.84;5070169;28;20020;-60
2021/11/16 11:26:52;;;;;;;14.38;8.52;;;;;;;10.33;93.24;98889.63;5069350;28;20035;-60
2021/11/16 11:29:46;;;;;;;14.13;8.98;;;;;;;10.38;92.56;98882.25;5098167;27;20017;-61
2021/11/16 11:32:29;;;;;;;14.38;9.80;;;;;;;10.49;93.14;98879.50;5072239;28;20055;-60
2021/11/16 11:35:01;;;;;;;12.10;8.80;;;;;;;10.44;92.95;98871.34;5071621;28;20032;-63
2021/11/16 11:37:58;;;;;;;14.68;9.38;;;;;;;10.46;92.39;98865.97;5055908;28;20043;-60
2021/11/16 11:40:36;;;;;;;11.95;8.55;;;;;;;10.48;92.12;98861.47;5029154;28;20131;-61
2021/11/16 11:43:08;;;;;;;12.93;8.90;;;;;;;10.49;92.41;98855.31;5070898;28;20463;-61
2021/11/16 11:45:37;;;;;;;13.63;9.63;;;;;;;10.32;92.14;98820.44;5071863;28;20075;-61
2021/11/16 11:48:02;;;;;;;12.90;8.90;;;;;;;10.52;92.12;98855.03;5064926;28;20480;-61
2021/11/16 11:50:33;;;;;;;12.02;8.68;;;;;;;10.53;91.47;98857.50;5078016;28;20483;-61